createdAt,value
2018-03-27T00:00:26.251Z,19.97
2018-03-27T00:02:56.695Z,23.83
2018-03-27T00:05:27.404Z,23.53
2018-03-27T00:07:57.631Z,24.10
2018-03-27T00:10:28.213Z,24.87
2018-03-27T00:12:58.329Z,22.70
2018-03-27T00:15:28.545Z,23.23
2018-03-27T00:17:59.306Z,26.00
2018-03-27T00:20:30.095Z,24.23
2018-03-27T00:23:00.522Z,20.93
2018-03-27T00:25:30.787Z,22.30
2018-03-27T00:28:12.005Z,22.27
2018-03-27T00:30:53.555Z,22.77
2018-03-27T00:33:36.104Z,22.73
2018-03-27T00:36:17.432Z,21.07
2018-03-27T00:38:59.054Z,22.83
2018-03-27T00:44:40.165Z,20.13
2018-03-27T00:47:10.827Z,23.17
2018-03-27T00:49:41.499Z,22.63
2018-03-27T00:52:11.350Z,22.20
2018-03-27T00:54:40.958Z,22.77
2018-03-27T00:57:11.479Z,26.63
2018-03-27T00:59:41.518Z,23.17
2018-03-27T01:02:12.227Z,25.10
2018-03-27T01:04:42.474Z,23.13
2018-03-27T01:07:11.888Z,24.50
2018-03-27T01:09:41.802Z,24.43
2018-03-27T01:12:11.310Z,22.13
2018-03-27T01:14:41.032Z,25.83
2018-03-27T01:17:11.890Z,24.63
2018-03-27T01:19:42.317Z,23.73
2018-03-27T01:22:11.487Z,25.07
2018-03-27T01:24:41.275Z,22.37
2018-03-27T01:27:12.035Z,24.67
2018-03-27T01:29:42.636Z,24.97
2018-03-27T01:32:12.444Z,24.90
2018-03-27T01:34:42.403Z,24.57
2018-03-27T01:37:14.673Z,23.87
2018-03-27T01:39:45.286Z,25.70
2018-03-27T01:42:15.987Z,22.57
2018-03-27T01:44:46.825Z,25.43
2018-03-27T01:47:16.966Z,26.23
2018-03-27T01:49:47.143Z,25.40
2018-03-27T01:52:17.155Z,27.07
2018-03-27T01:54:46.997Z,27.50
2018-03-27T01:57:17.098Z,27.97
2018-03-27T01:59:47.458Z,28.17
2018-03-27T02:02:17.841Z,26.93
2018-03-27T02:04:48.192Z,24.00
2018-03-27T02:07:18.284Z,26.90
2018-03-27T02:09:48.156Z,27.00
2018-03-27T02:12:23.575Z,25.23
2018-03-27T02:14:59.444Z,23.50
2018-03-27T02:17:34.630Z,27.37
2018-03-27T02:20:10.882Z,23.60
2018-03-27T02:22:59.346Z,27.00
2018-03-27T02:25:29.855Z,24.47
2018-03-27T02:28:00.802Z,26.27
2018-03-27T02:30:31.029Z,26.30
2018-03-27T02:33:01.166Z,26.67
2018-03-27T02:35:32.168Z,26.80
2018-03-27T02:38:00.535Z,27.63
2018-03-27T02:40:30.135Z,28.00
2018-03-27T02:45:33.018Z,25.83
2018-03-27T02:48:01.392Z,26.53
2018-03-27T02:50:29.741Z,26.43
2018-03-27T02:52:58.508Z,25.43
2018-03-27T02:55:26.888Z,26.00
2018-03-27T02:57:55.257Z,26.33
2018-03-27T03:00:23.628Z,26.97
2018-03-27T03:02:52.030Z,28.70
2018-03-27T03:05:20.420Z,26.03
2018-03-27T03:07:48.754Z,28.13
2018-03-27T03:10:17.113Z,25.30
2018-03-27T03:12:46.251Z,25.73
2018-03-27T03:15:14.596Z,27.40
2018-03-27T03:17:43.740Z,26.70
2018-03-27T03:20:12.096Z,27.30
2018-03-27T03:22:40.489Z,28.27
2018-03-27T03:25:08.827Z,25.10
2018-03-27T03:27:37.219Z,27.60
2018-03-27T03:30:05.601Z,26.80
2018-03-27T03:32:33.958Z,25.77
2018-03-27T03:35:03.091Z,27.73
2018-03-27T03:37:31.419Z,28.87
2018-03-27T03:39:59.798Z,28.90
2018-03-27T03:42:28.893Z,29.17
2018-03-27T03:44:58.034Z,28.87
2018-03-27T03:47:26.375Z,28.27
2018-03-27T03:49:55.468Z,25.33
2018-03-27T03:52:24.589Z,28.23
2018-03-27T03:54:52.980Z,25.87
2018-03-27T03:57:21.330Z,27.10
2018-03-27T03:59:49.694Z,30.93
2018-03-27T04:02:18.874Z,27.87
2018-03-27T04:04:47.285Z,24.50
2018-03-27T04:07:15.643Z,28.23
2018-03-27T04:09:44.795Z,29.87
2018-03-27T04:12:13.201Z,29.20
2018-03-27T04:14:41.590Z,27.07
2018-03-27T04:17:10.718Z,29.20
2018-03-27T04:19:39.104Z,31.37
2018-03-27T04:22:08.216Z,26.93
2018-03-27T04:24:36.623Z,30.10
2018-03-27T04:27:04.955Z,28.50
2018-03-27T04:29:33.317Z,30.57
2018-03-27T04:32:01.714Z,29.83
2018-03-27T04:34:30.080Z,28.97
2018-03-27T04:36:58.437Z,29.17
2018-03-27T04:39:27.538Z,32.17
2018-03-27T04:41:56.262Z,29.90
2018-03-27T04:44:24.624Z,28.17
2018-03-27T04:46:52.980Z,32.03
2018-03-27T04:49:21.351Z,29.53
2018-03-27T04:51:50.553Z,28.93
2018-03-27T04:54:18.871Z,27.77
2018-03-27T04:56:47.310Z,29.10
2018-03-27T04:59:15.706Z,27.43
2018-03-27T05:01:44.046Z,32.07
2018-03-27T05:04:12.410Z,30.87
2018-03-27T05:06:40.811Z,29.60
2018-03-27T05:09:09.970Z,30.77
2018-03-27T05:11:38.352Z,31.77
2018-03-27T05:14:06.700Z,31.57
2018-03-27T05:16:35.104Z,32.57
2018-03-27T05:19:03.429Z,35.13
2018-03-27T05:21:31.850Z,34.43
2018-03-27T05:24:00.242Z,30.20
2018-03-27T05:26:28.649Z,32.60
2018-03-27T05:28:57.784Z,30.27
2018-03-27T05:31:26.179Z,29.87
2018-03-27T05:33:54.601Z,34.17
2018-03-27T05:36:23.731Z,31.73
2018-03-27T05:38:52.117Z,31.67
2018-03-27T05:41:20.463Z,29.90
2018-03-27T05:43:49.598Z,31.80
2018-03-27T05:46:17.931Z,33.13
2018-03-27T05:48:47.033Z,32.73
2018-03-27T05:51:15.447Z,32.70
2018-03-27T05:53:43.810Z,29.80
2018-03-27T05:56:12.204Z,28.60
2018-03-27T05:58:40.533Z,28.50
2018-03-27T06:01:09.675Z,26.70
2018-03-27T06:03:38.065Z,29.43
2018-03-27T06:06:06.448Z,28.27
2018-03-27T06:08:34.789Z,26.27
2018-03-27T06:11:03.158Z,27.27
2018-03-27T06:13:31.534Z,26.40
2018-03-27T06:15:59.919Z,25.97
2018-03-27T06:18:28.306Z,28.40
2018-03-27T06:20:56.633Z,29.47
2018-03-27T06:23:25.033Z,29.57
2018-03-27T06:25:54.149Z,26.43
2018-03-27T06:28:22.496Z,27.77
2018-03-27T06:30:51.631Z,29.10
2018-03-27T06:33:19.978Z,25.77
2018-03-27T06:35:49.075Z,28.60
2018-03-27T06:38:18.283Z,28.23
2018-03-27T06:40:46.605Z,26.83
2018-03-27T06:43:14.990Z,26.00
2018-03-27T06:45:43.421Z,26.93
2018-03-27T06:48:11.808Z,27.20
2018-03-27T06:50:40.140Z,25.83
2018-03-27T06:53:08.492Z,25.53
2018-03-27T06:55:36.847Z,24.83
2018-03-27T06:58:05.205Z,25.80
2018-03-27T07:00:33.594Z,24.07
2018-03-27T07:03:01.979Z,23.50
2018-03-27T07:05:30.381Z,21.43
2018-03-27T07:07:58.698Z,22.73
2018-03-27T07:10:27.145Z,21.70
2018-03-27T07:12:56.751Z,23.23
2018-03-27T07:15:25.116Z,20.87
2018-03-27T07:17:53.560Z,20.63
2018-03-27T07:20:21.972Z,19.37
2018-03-27T07:22:51.396Z,19.40
2018-03-27T07:25:19.880Z,18.07
2018-03-27T07:27:48.247Z,19.07
2018-03-27T07:30:16.893Z,17.93
2018-03-27T07:32:45.324Z,18.77
2018-03-27T07:35:13.746Z,18.03
2018-03-27T07:37:42.112Z,18.70
2018-03-27T07:40:10.538Z,18.03
2018-03-27T07:42:39.663Z,17.23
2018-03-27T07:45:08.051Z,17.90
2018-03-27T07:47:37.163Z,18.60
2018-03-27T07:50:05.536Z,18.07
2018-03-27T07:52:33.902Z,17.20
2018-03-27T07:55:03.053Z,17.63
2018-03-27T07:57:31.433Z,17.17
2018-03-27T08:00:00.032Z,17.33
2018-03-27T08:02:28.540Z,17.27
2018-03-27T08:04:57.685Z,18.40
2018-03-27T08:07:26.093Z,18.27
2018-03-27T08:09:54.755Z,18.50
2018-03-27T08:12:23.200Z,19.33
2018-03-27T08:14:51.705Z,19.03
2018-03-27T08:17:20.369Z,17.73
2018-03-27T08:19:49.089Z,19.20
2018-03-27T08:22:17.645Z,18.03
2018-03-27T08:24:46.686Z,20.50
2018-03-27T08:27:15.838Z,20.73
2018-03-27T08:29:44.612Z,21.73
2018-03-27T08:32:14.128Z,20.90
2018-03-27T08:34:42.915Z,22.00
2018-03-27T08:37:11.293Z,20.70
2018-03-27T08:39:39.845Z,20.60
2018-03-27T08:42:08.287Z,22.17
2018-03-27T08:44:36.920Z,20.83
2018-03-27T08:47:06.151Z,21.90
2018-03-27T08:49:34.556Z,22.17
2018-03-27T08:52:03.137Z,21.53
2018-03-27T08:54:31.509Z,22.23
2018-03-27T08:56:59.930Z,24.00
2018-03-27T08:59:29.762Z,22.47
2018-03-27T09:01:58.843Z,22.13
2018-03-27T09:04:27.249Z,22.90
2018-03-27T09:06:55.578Z,22.63
2018-03-27T09:09:25.376Z,23.93
2018-03-27T09:11:53.784Z,21.03
2018-03-27T09:14:22.158Z,22.30
2018-03-27T09:16:51.381Z,22.20
2018-03-27T09:19:19.800Z,23.03
2018-03-27T09:21:50.673Z,23.13
2018-03-27T09:24:21.156Z,22.57
2018-03-27T09:26:50.374Z,22.17
2018-03-27T09:29:18.732Z,24.40
2018-03-27T09:31:48.050Z,22.00
2018-03-27T09:34:16.936Z,22.67
2018-03-27T09:36:45.583Z,23.10
2018-03-27T09:39:14.288Z,22.20
2018-03-27T09:41:42.711Z,22.97
2018-03-27T09:44:12.439Z,21.73
2018-03-27T09:46:40.834Z,21.47
2018-03-27T09:49:09.801Z,19.43
2018-03-27T09:51:39.030Z,19.47
2018-03-27T09:54:07.585Z,18.73
2018-03-27T09:56:35.994Z,19.53
2018-03-27T09:59:04.756Z,14.47
2018-03-27T10:01:33.874Z,15.07
2018-03-27T10:04:03.076Z,15.07
2018-03-27T10:06:31.923Z,15.53
2018-03-27T10:09:00.838Z,13.63
2018-03-27T10:11:29.305Z,12.97
2018-03-27T10:13:57.656Z,13.80
2018-03-27T10:16:26.813Z,12.00
2018-03-27T10:18:55.180Z,10.53
2018-03-27T10:21:23.566Z,9.13
2018-03-27T10:23:52.474Z,8.80
2018-03-27T10:26:20.871Z,11.17
2018-03-27T10:28:49.968Z,11.43
2018-03-27T10:31:19.154Z,10.77
2018-03-27T10:33:47.522Z,10.73
2018-03-27T10:36:15.932Z,10.60
2018-03-27T10:38:45.058Z,10.40
2018-03-27T10:41:13.414Z,11.10
2018-03-27T10:43:41.846Z,10.57
2018-03-27T10:46:11.626Z,11.90
2018-03-27T10:48:39.982Z,11.63
2018-03-27T10:51:09.185Z,13.40
2018-03-27T10:53:37.718Z,13.43
2018-03-27T10:56:06.104Z,12.83
2018-03-27T10:58:34.477Z,12.70
2018-03-27T11:01:02.860Z,13.20
2018-03-27T11:03:44.894Z,13.57
2018-03-27T11:06:13.953Z,12.97
2018-03-27T11:08:42.362Z,13.03
2018-03-27T11:11:10.779Z,12.60
2018-03-27T11:13:43.750Z,13.17
2018-03-27T11:16:35.323Z,13.13
2018-03-27T11:19:46.285Z,13.47
2018-03-27T11:27:30.432Z,9.20
2018-03-27T11:30:30.929Z,10.00
2018-03-27T11:33:00.252Z,9.90
2018-03-27T12:44:08.074Z,10.00
2018-03-27T12:46:37.341Z,9.90
2018-03-27T12:49:05.735Z,9.57
2018-03-27T12:51:34.866Z,9.63
2018-03-27T12:54:03.664Z,10.43
2018-03-27T12:56:32.036Z,12.33
2018-03-27T12:59:00.444Z,11.87
2018-03-27T13:01:29.274Z,12.77
2018-03-27T13:03:57.730Z,11.97
2018-03-27T13:06:26.239Z,12.50
2018-03-27T13:08:54.640Z,13.47
2018-03-27T13:11:22.998Z,13.53
2018-03-27T13:13:51.374Z,14.87
2018-03-27T13:16:19.778Z,15.83
2018-03-27T13:18:48.573Z,15.50
2018-03-27T13:21:16.961Z,14.53
2018-03-27T13:23:45.409Z,15.33
2018-03-27T13:26:13.813Z,15.63
2018-03-27T13:28:42.219Z,16.80
2018-03-27T13:31:10.573Z,17.07
2018-03-27T13:33:39.017Z,16.47
2018-03-27T13:36:07.422Z,16.93
2018-03-27T13:38:35.823Z,18.17
2018-03-27T13:41:04.950Z,17.17
2018-03-27T13:43:33.416Z,17.43
2018-03-27T13:46:01.898Z,17.23
2018-03-27T13:48:30.643Z,18.37
2018-03-27T13:50:58.980Z,18.47
2018-03-27T13:53:28.171Z,17.40
2018-03-27T13:55:57.374Z,18.00
2018-03-27T13:58:26.531Z,18.63
2018-03-27T14:00:54.915Z,18.83
2018-03-27T14:03:23.304Z,18.03
2018-03-27T14:05:51.662Z,19.47
2018-03-27T14:08:20.074Z,18.37
2018-03-27T14:10:49.231Z,18.87
2018-03-27T14:13:17.613Z,19.80
2018-03-27T14:15:46.046Z,18.83
2018-03-27T14:18:14.484Z,20.03
2018-03-27T14:20:43.629Z,18.43
2018-03-27T14:23:12.057Z,18.90
2018-03-27T14:25:41.244Z,19.77
2018-03-27T14:28:09.614Z,20.43
2018-03-27T14:30:38.056Z,19.83
2018-03-27T14:33:06.383Z,20.93
2018-03-27T14:35:34.742Z,20.77
2018-03-27T14:38:03.078Z,21.40
2018-03-27T14:40:31.993Z,19.80
2018-03-27T14:43:00.395Z,21.63
2018-03-27T14:45:31.195Z,20.37
2018-03-27T14:48:00.159Z,20.33
2018-03-27T14:50:28.993Z,19.93
2018-03-27T14:52:57.860Z,22.10
2018-03-27T14:55:26.827Z,20.37
2018-03-27T14:57:56.049Z,21.63
2018-03-27T15:00:24.744Z,21.83
2018-03-27T15:02:53.115Z,19.97
2018-03-27T15:05:22.020Z,21.07
2018-03-27T15:07:50.383Z,21.47
2018-03-27T15:10:18.793Z,21.47
2018-03-27T15:12:47.158Z,20.93
2018-03-27T15:15:15.646Z,19.93
2018-03-27T15:17:44.366Z,19.93
2018-03-27T15:20:12.711Z,21.67
2018-03-27T15:22:41.072Z,20.67
2018-03-27T15:25:09.490Z,20.80
2018-03-27T15:27:37.903Z,20.53
2018-03-27T15:30:07.109Z,19.63
2018-03-27T15:32:35.515Z,20.70
2018-03-27T15:35:03.884Z,19.93
2018-03-27T15:37:32.287Z,21.00
2018-03-27T15:40:01.107Z,20.87
2018-03-27T15:42:31.268Z,20.60
2018-03-27T15:45:00.013Z,20.77
2018-03-27T15:47:28.425Z,22.07
2018-03-27T15:49:56.967Z,20.80
2018-03-27T15:52:25.782Z,21.17
2018-03-27T15:54:54.189Z,21.90
2018-03-27T15:57:23.093Z,23.20
2018-03-27T15:59:54.417Z,22.70
2018-03-27T16:02:24.660Z,22.60
2018-03-27T16:04:55.423Z,19.23
2018-03-27T16:07:26.323Z,18.27
2018-03-27T16:09:57.018Z,19.73
2018-03-27T16:12:27.982Z,19.70
2018-03-27T16:14:58.848Z,19.20
2018-03-27T16:17:29.524Z,18.40
2018-03-27T16:20:00.786Z,19.20
2018-03-27T16:22:30.644Z,18.77
2018-03-27T16:25:01.460Z,19.77
2018-03-27T16:27:32.028Z,19.17
2018-03-27T16:30:02.309Z,18.47
2018-03-27T16:32:32.600Z,19.03
2018-03-27T16:35:03.219Z,20.63
2018-03-27T16:37:33.712Z,19.20
2018-03-27T16:40:04.497Z,19.43
2018-03-27T16:42:35.138Z,17.60
2018-03-27T16:45:05.770Z,18.60
2018-03-27T16:47:36.324Z,18.50
2018-03-27T16:50:06.565Z,18.90
2018-03-27T16:52:36.554Z,18.87
2018-03-27T16:55:06.870Z,18.67
2018-03-27T16:57:37.497Z,19.20
2018-03-27T17:00:07.892Z,18.90
2018-03-27T17:02:38.071Z,19.33
2018-03-27T17:05:08.829Z,18.87
2018-03-27T17:07:40.229Z,19.37
2018-03-27T17:10:11.057Z,19.10
2018-03-27T17:12:42.334Z,18.63
2018-03-27T17:15:13.461Z,19.70
2018-03-27T17:17:43.982Z,19.20
2018-03-27T17:20:14.929Z,19.53
2018-03-27T17:22:46.142Z,18.40
2018-03-27T17:25:16.183Z,18.77
2018-03-27T17:27:46.863Z,20.07
2018-03-27T17:30:16.484Z,18.77
2018-03-27T17:32:46.923Z,18.30
2018-03-27T17:35:17.758Z,18.67
2018-03-27T17:37:47.436Z,20.00
2018-03-27T17:40:17.188Z,17.93
2018-03-27T17:42:47.265Z,19.57
2018-03-27T17:45:19.562Z,18.17
2018-03-27T17:47:49.634Z,20.37
2018-03-27T17:50:19.979Z,18.90
2018-03-27T17:52:48.893Z,19.10
2018-03-27T17:55:19.710Z,18.57
2018-03-27T17:57:51.448Z,19.83
2018-03-27T18:00:21.832Z,19.07
2018-03-27T18:02:52.211Z,19.60
2018-03-27T18:05:22.418Z,18.83
2018-03-27T18:07:53.067Z,20.03
2018-03-27T18:10:24.243Z,20.17
2018-03-27T18:12:55.094Z,19.13
2018-03-27T18:15:24.992Z,19.27
2018-03-27T18:17:55.431Z,19.70
2018-03-27T18:20:25.939Z,19.00
2018-03-27T18:22:56.455Z,18.17
2018-03-27T18:25:27.828Z,19.27
2018-03-27T18:27:58.682Z,19.47
2018-03-27T18:30:28.791Z,18.30
2018-03-27T18:32:59.532Z,18.53
2018-03-27T18:35:29.541Z,20.10
2018-03-27T18:37:59.605Z,18.63
2018-03-27T18:40:30.972Z,19.00
2018-03-27T18:43:01.345Z,19.73
2018-03-27T18:45:31.874Z,20.40
2018-03-27T18:48:01.817Z,20.33
2018-03-27T18:50:32.195Z,21.30
2018-03-27T18:53:02.470Z,21.40
2018-03-27T18:55:32.225Z,22.23
2018-03-27T18:58:02.443Z,20.63
2018-03-27T19:00:30.862Z,21.60
2018-03-27T19:02:59.268Z,20.10
2018-03-27T19:05:28.398Z,19.90
2018-03-27T19:07:57.121Z,19.57
2018-03-27T19:10:25.512Z,20.90
2018-03-27T19:12:53.876Z,20.13
2018-03-27T19:15:22.416Z,19.90
2018-03-27T19:17:50.769Z,19.90
2018-03-27T19:20:19.905Z,21.23
2018-03-27T19:22:48.266Z,22.23
2018-03-27T19:25:16.687Z,21.13
2018-03-27T19:27:45.078Z,21.77
2018-03-27T19:30:13.403Z,20.60
2018-03-27T19:32:41.748Z,21.50
2018-03-27T19:35:10.878Z,22.40
2018-03-27T19:37:39.251Z,22.37
2018-03-27T19:40:07.617Z,23.27
2018-03-27T19:42:36.010Z,22.53
2018-03-27T19:45:04.401Z,22.17
2018-03-27T19:47:32.738Z,24.27
2018-03-27T19:50:01.894Z,26.10
2018-03-27T19:52:30.278Z,26.30
2018-03-27T19:54:58.687Z,27.00
2018-03-27T19:57:27.784Z,25.73
2018-03-27T19:59:56.901Z,28.03
2018-03-27T20:02:25.300Z,26.70
2018-03-27T20:04:53.667Z,27.13
2018-03-27T20:07:22.029Z,27.40
2018-03-27T20:09:50.428Z,28.67
2018-03-27T20:12:18.775Z,29.63
2018-03-27T20:14:47.134Z,29.17
2018-03-27T20:17:16.268Z,29.60
2018-03-27T20:19:44.635Z,29.83
2018-03-27T20:22:13.052Z,31.40
2018-03-27T20:24:41.413Z,29.10
2018-03-27T20:27:09.789Z,30.97
2018-03-27T20:29:38.959Z,32.13
2018-03-27T20:32:07.293Z,32.13
2018-03-27T20:34:35.680Z,31.23
2018-03-27T20:37:04.084Z,31.40
2018-03-27T20:39:33.183Z,30.53
2018-03-27T20:42:01.521Z,30.47
2018-03-27T20:44:29.905Z,30.60
2018-03-27T20:46:58.638Z,32.03
2018-03-27T20:49:27.046Z,30.93
2018-03-27T20:51:55.420Z,31.27
2018-03-27T20:54:23.807Z,30.50
2018-03-27T20:56:52.159Z,29.90
2018-03-27T20:59:20.598Z,31.50
2018-03-27T21:01:49.779Z,31.47
2018-03-27T21:04:18.145Z,31.67
2018-03-27T21:06:46.553Z,32.93
2018-03-27T21:09:15.687Z,32.40
2018-03-27T21:11:44.087Z,31.50
2018-03-27T21:14:12.432Z,32.87
2018-03-27T21:16:40.832Z,33.57
2018-03-27T21:19:09.161Z,33.23
2018-03-27T21:21:37.541Z,34.53
2018-03-27T21:24:06.658Z,33.40
2018-03-27T21:26:34.986Z,34.30
2018-03-27T21:29:03.376Z,35.50
2018-03-27T21:31:32.482Z,34.80
2018-03-27T21:34:01.687Z,36.10
2018-03-27T21:36:30.814Z,36.80
2018-03-27T21:38:59.174Z,37.83
2018-03-27T21:41:27.528Z,37.80
2018-03-27T21:43:56.631Z,38.30
2018-03-27T21:46:25.932Z,38.97
2018-03-27T21:48:55.564Z,37.80
2018-03-27T21:51:23.982Z,39.10
2018-03-27T21:53:52.314Z,41.40
2018-03-27T21:56:20.668Z,38.50
2018-03-27T21:58:49.819Z,41.13
2018-03-27T22:01:18.221Z,42.20
2018-03-27T22:03:46.553Z,40.57
2018-03-27T22:06:14.980Z,41.53
2018-03-27T22:08:43.346Z,39.37
2018-03-27T22:11:11.705Z,37.43
2018-03-27T22:13:40.492Z,39.67
2018-03-27T22:16:08.862Z,41.77
2018-03-27T22:18:37.218Z,40.40
2018-03-27T22:21:06.067Z,40.13
2018-03-27T22:23:34.431Z,40.13
2018-03-27T22:26:02.837Z,39.07
2018-03-27T22:28:31.974Z,40.90
2018-03-27T22:31:00.722Z,40.23
2018-03-27T22:33:29.933Z,41.17
2018-03-27T22:35:59.030Z,36.73
2018-03-27T22:38:28.195Z,40.53
2018-03-27T22:40:56.621Z,37.93
2018-03-27T22:43:25.421Z,41.20
2018-03-27T22:45:54.186Z,39.93
2018-03-27T22:48:23.819Z,39.87
2018-03-27T22:50:53.440Z,41.00
2018-03-27T22:53:22.758Z,42.47
2018-03-27T22:55:51.765Z,40.60
2018-03-27T22:58:21.392Z,39.13
2018-03-27T23:00:52.593Z,40.20
2018-03-27T23:03:21.746Z,41.43
2018-03-27T23:05:50.130Z,39.03
2018-03-27T23:08:18.543Z,41.57
2018-03-27T23:10:46.898Z,45.27
2018-03-27T23:13:15.294Z,41.13
2018-03-27T23:15:43.666Z,41.27
2018-03-27T23:18:12.035Z,43.20
2018-03-27T23:20:40.458Z,42.63
2018-03-27T23:23:09.841Z,45.63
2018-03-27T23:25:38.804Z,44.80
2018-03-27T23:28:07.171Z,44.17
2018-03-27T23:30:35.585Z,44.20
2018-03-27T23:33:04.628Z,43.17
2018-03-27T23:35:33.911Z,43.73
2018-03-27T23:38:03.049Z,42.37
2018-03-27T23:40:31.647Z,41.80
2018-03-27T23:43:00.458Z,45.00
2018-03-27T23:45:28.784Z,43.03
2018-03-27T23:47:57.147Z,45.80
2018-03-27T23:50:25.519Z,41.23
2018-03-27T23:52:53.930Z,43.77
2018-03-27T23:55:22.274Z,43.80
2018-03-27T23:57:51.405Z,47.80
